sensor_id;sensor_type;location;lat;lon;timestamp;P1;durP1;ratioP1;P2;durP2;ratioP2
67053;SDS011;53960;51.826;5.850;2023-09-12T00:01:24;47.27;;;28.57;;
67053;SDS011;53960;51.826;5.850;2023-09-12T00:03:49;48.23;;;28.87;;
67053;SDS011;53960;51.826;5.850;2023-09-12T00:06:15;50.40;;;29.10;;
67053;SDS011;53960;51.826;5.850;2023-09-12T00:08:40;51.10;;;29.97;;
67053;SDS011;53960;51.826;5.850;2023-09-12T00:11:07;45.22;;;28.27;;
67053;SDS011;53960;51.826;5.850;2023-09-12T00:13:36;50.07;;;29.03;;
67053;SDS011;53960;51.826;5.850;2023-09-12T00:16:02;48.33;;;28.60;;
67053;SDS011;53960;51.826;5.850;2023-09-12T00:18:28;45.22;;;28.40;;
67053;SDS011;53960;51.826;5.850;2023-09-12T00:20:53;47.40;;;28.13;;
67053;SDS011;53960;51.826;5.850;2023-09-12T00:23:20;49.10;;;27.85;;
67053;SDS011;53960;51.826;5.850;2023-09-12T00:25:46;48.27;;;28.87;;
67053;SDS011;53960;51.826;5.850;2023-09-12T00:28:12;48.13;;;29.23;;
67053;SDS011;53960;51.826;5.850;2023-09-12T00:30:37;47.47;;;28.70;;
67053;SDS011;53960;51.826;5.850;2023-09-12T00:33:02;54.03;;;30.17;;
67053;SDS011;53960;51.826;5.850;2023-09-12T00:35:28;51.27;;;30.47;;
67053;SDS011;53960;51.826;5.850;2023-09-12T00:37:53;47.55;;;29.40;;
67053;SDS011;53960;51.826;5.850;2023-09-12T00:40:19;51.27;;;29.87;;
67053;SDS011;53960;51.826;5.850;2023-09-12T00:42:44;55.37;;;30.33;;
67053;SDS011;53960;51.826;5.850;2023-09-12T00:45:09;47.07;;;28.50;;
67053;SDS011;53960;51.826;5.850;2023-09-12T00:47:35;48.30;;;28.00;;
67053;SDS011;53960;51.826;5.850;2023-09-12T00:50:01;46.65;;;27.27;;
67053;SDS011;53960;51.826;5.850;2023-09-12T00:52:29;45.92;;;27.60;;
67053;SDS011;53960;51.826;5.850;2023-09-12T00:54:56;50.83;;;27.90;;
67053;SDS011;53960;51.826;5.850;2023-09-12T00:57:22;46.70;;;28.17;;
67053;SDS011;53960;51.826;5.850;2023-09-12T00:59:49;46.03;;;28.73;;
67053;SDS011;53960;51.826;5.850;2023-09-12T01:02:14;47.10;;;27.77;;
67053;SDS011;53960;51.826;5.850;2023-09-12T01:04:40;45.97;;;27.25;;
67053;SDS011;53960;51.826;5.850;2023-09-12T01:07:07;44.70;;;25.83;;
67053;SDS011;53960;51.826;5.850;2023-09-12T01:09:32;48.40;;;27.15;;
67053;SDS011;53960;51.826;5.850;2023-09-12T01:11:59;46.37;;;26.80;;
67053;SDS011;53960;51.826;5.850;2023-09-12T01:14:28;43.17;;;25.27;;
67053;SDS011;53960;51.826;5.850;2023-09-12T01:16:54;42.10;;;25.77;;
67053;SDS011;53960;51.826;5.850;2023-09-12T01:19:20;40.15;;;24.92;;
67053;SDS011;53960;51.826;5.850;2023-09-12T01:24:30;43.28;;;26.25;;
67053;SDS011;53960;51.826;5.850;2023-09-12T01:30:04;43.78;;;26.23;;
67053;SDS011;53960;51.826;5.850;2023-09-12T01:32:31;38.40;;;22.93;;
67053;SDS011;53960;51.826;5.850;2023-09-12T01:34:57;38.17;;;23.42;;
67053;SDS011;53960;51.826;5.850;2023-09-12T01:37:23;38.38;;;23.40;;
67053;SDS011;53960;51.826;5.850;2023-09-12T01:39:48;40.17;;;24.33;;
67053;SDS011;53960;51.826;5.850;2023-09-12T01:42:16;40.03;;;23.67;;
67053;SDS011;53960;51.826;5.850;2023-09-12T01:44:45;41.60;;;23.88;;
67053;SDS011;53960;51.826;5.850;2023-09-12T01:47:12;41.45;;;24.70;;
67053;SDS011;53960;51.826;5.850;2023-09-12T01:49:43;42.93;;;24.67;;
67053;SDS011;53960;51.826;5.850;2023-09-12T01:52:12;37.47;;;22.70;;
67053;SDS011;53960;51.826;5.850;2023-09-12T01:54:38;39.22;;;23.95;;
67053;SDS011;53960;51.826;5.850;2023-09-12T01:57:04;39.22;;;24.05;;
67053;SDS011;53960;51.826;5.850;2023-09-12T01:59:30;37.23;;;22.83;;
67053;SDS011;53960;51.826;5.850;2023-09-12T02:01:56;40.13;;;23.08;;
67053;SDS011;53960;51.826;5.850;2023-09-12T02:04:21;37.63;;;22.90;;
67053;SDS011;53960;51.826;5.850;2023-09-12T02:06:47;39.13;;;23.03;;
67053;SDS011;53960;51.826;5.850;2023-09-12T02:09:12;35.73;;;21.73;;
67053;SDS011;53960;51.826;5.850;2023-09-12T02:11:37;37.15;;;22.45;;
67053;SDS011;53960;51.826;5.850;2023-09-12T02:14:03;37.50;;;22.37;;
67053;SDS011;53960;51.826;5.850;2023-09-12T02:16:29;39.57;;;23.17;;
67053;SDS011;53960;51.826;5.850;2023-09-12T02:18:55;38.33;;;22.55;;
67053;SDS011;53960;51.826;5.850;2023-09-12T02:21:21;40.40;;;22.90;;
67053;SDS011;53960;51.826;5.850;2023-09-12T02:23:46;36.70;;;22.27;;
67053;SDS011;53960;51.826;5.850;2023-09-12T02:26:11;36.13;;;22.10;;
67053;SDS011;53960;51.826;5.850;2023-09-12T02:28:37;37.13;;;21.73;;
67053;SDS011;53960;51.826;5.850;2023-09-12T02:31:02;36.87;;;22.33;;
67053;SDS011;53960;51.826;5.850;2023-09-12T02:33:28;37.33;;;22.53;;
67053;SDS011;53960;51.826;5.850;2023-09-12T02:35:53;41.13;;;23.13;;
67053;SDS011;53960;51.826;5.850;2023-09-12T02:38:18;41.47;;;23.60;;
67053;SDS011;53960;51.826;5.850;2023-09-12T02:40:44;44.72;;;24.75;;
67053;SDS011;53960;51.826;5.850;2023-09-12T02:43:09;43.97;;;23.07;;
67053;SDS011;53960;51.826;5.850;2023-09-12T02:45:34;41.20;;;22.97;;
67053;SDS011;53960;51.826;5.850;2023-09-12T02:48:00;39.22;;;21.85;;
67053;SDS011;53960;51.826;5.850;2023-09-12T02:50:26;37.47;;;21.87;;
67053;SDS011;53960;51.826;5.850;2023-09-12T02:52:51;32.47;;;20.57;;
67053;SDS011;53960;51.826;5.850;2023-09-12T02:55:16;42.00;;;23.67;;
67053;SDS011;53960;51.826;5.850;2023-09-12T02:57:42;44.93;;;24.37;;
67053;SDS011;53960;51.826;5.850;2023-09-12T03:00:07;42.97;;;24.17;;
67053;SDS011;53960;51.826;5.850;2023-09-12T03:02:34;45.35;;;24.48;;
67053;SDS011;53960;51.826;5.850;2023-09-12T03:04:59;43.10;;;24.83;;
67053;SDS011;53960;51.826;5.850;2023-09-12T03:07:26;42.47;;;24.25;;
67053;SDS011;53960;51.826;5.850;2023-09-12T03:09:51;41.93;;;23.60;;
67053;SDS011;53960;51.826;5.850;2023-09-12T03:12:17;40.00;;;24.45;;
67053;SDS011;53960;51.826;5.850;2023-09-12T03:14:42;42.90;;;24.03;;
67053;SDS011;53960;51.826;5.850;2023-09-12T03:17:08;43.53;;;24.13;;
67053;SDS011;53960;51.826;5.850;2023-09-12T03:19:33;44.57;;;24.93;;
67053;SDS011;53960;51.826;5.850;2023-09-12T03:21:58;44.83;;;26.57;;
67053;SDS011;53960;51.826;5.850;2023-09-12T03:24:24;42.40;;;24.40;;
67053;SDS011;53960;51.826;5.850;2023-09-12T03:26:50;44.20;;;25.10;;
67053;SDS011;53960;51.826;5.850;2023-09-12T03:29:16;42.05;;;24.05;;
67053;SDS011;53960;51.826;5.850;2023-09-12T03:31:41;42.53;;;24.30;;
67053;SDS011;53960;51.826;5.850;2023-09-12T03:34:06;44.23;;;25.93;;
67053;SDS011;53960;51.826;5.850;2023-09-12T03:36:32;43.38;;;26.10;;
67053;SDS011;53960;51.826;5.850;2023-09-12T03:38:57;43.40;;;26.10;;
67053;SDS011;53960;51.826;5.850;2023-09-12T03:41:23;46.30;;;26.83;;
67053;SDS011;53960;51.826;5.850;2023-09-12T03:43:52;45.00;;;25.63;;
67053;SDS011;53960;51.826;5.850;2023-09-12T03:46:19;43.33;;;27.20;;
67053;SDS011;53960;51.826;5.850;2023-09-12T03:48:44;50.87;;;27.10;;
67053;SDS011;53960;51.826;5.850;2023-09-12T03:51:10;50.10;;;26.83;;
67053;SDS011;53960;51.826;5.850;2023-09-12T03:53:36;47.90;;;26.08;;
67053;SDS011;53960;51.826;5.850;2023-09-12T03:56:01;43.13;;;24.77;;
67053;SDS011;53960;51.826;5.850;2023-09-12T03:58:27;45.83;;;26.33;;
67053;SDS011;53960;51.826;5.850;2023-09-12T04:00:52;47.57;;;25.37;;
67053;SDS011;53960;51.826;5.850;2023-09-12T04:03:17;49.43;;;27.07;;
67053;SDS011;53960;51.826;5.850;2023-09-12T04:05:43;46.90;;;26.35;;
67053;SDS011;53960;51.826;5.850;2023-09-12T04:08:08;45.70;;;26.17;;
67053;SDS011;53960;51.826;5.850;2023-09-12T04:10:33;45.57;;;26.20;;
67053;SDS011;53960;51.826;5.850;2023-09-12T04:12:59;47.70;;;27.23;;
67053;SDS011;53960;51.826;5.850;2023-09-12T04:15:24;48.97;;;26.60;;
67053;SDS011;53960;51.826;5.850;2023-09-12T04:17:49;43.17;;;26.00;;
67053;SDS011;53960;51.826;5.850;2023-09-12T04:20:15;43.33;;;25.77;;
67053;SDS011;53960;51.826;5.850;2023-09-12T04:22:41;41.75;;;25.50;;
67053;SDS011;53960;51.826;5.850;2023-09-12T04:25:07;43.93;;;24.97;;
67053;SDS011;53960;51.826;5.850;2023-09-12T04:27:33;45.60;;;27.00;;
67053;SDS011;53960;51.826;5.850;2023-09-12T04:29:59;44.30;;;27.15;;
67053;SDS011;53960;51.826;5.850;2023-09-12T04:32:24;48.73;;;27.83;;
67053;SDS011;53960;51.826;5.850;2023-09-12T04:34:50;52.47;;;28.77;;
67053;SDS011;53960;51.826;5.850;2023-09-12T04:37:15;53.23;;;28.67;;
67053;SDS011;53960;51.826;5.850;2023-09-12T04:39:41;54.45;;;30.02;;
67053;SDS011;53960;51.826;5.850;2023-09-12T04:42:06;59.17;;;30.67;;
67053;SDS011;53960;51.826;5.850;2023-09-12T04:44:35;55.97;;;29.93;;
67053;SDS011;53960;51.826;5.850;2023-09-12T04:47:04;51.28;;;28.33;;
67053;SDS011;53960;51.826;5.850;2023-09-12T04:49:29;51.47;;;28.93;;
67053;SDS011;53960;51.826;5.850;2023-09-12T04:51:54;53.10;;;28.47;;
67053;SDS011;53960;51.826;5.850;2023-09-12T04:54:20;56.83;;;29.23;;
67053;SDS011;53960;51.826;5.850;2023-09-12T04:56:45;52.30;;;28.83;;
67053;SDS011;53960;51.826;5.850;2023-09-12T04:59:11;53.63;;;29.53;;
67053;SDS011;53960;51.826;5.850;2023-09-12T05:01:36;54.27;;;28.27;;
67053;SDS011;53960;51.826;5.850;2023-09-12T05:04:02;54.87;;;28.90;;
67053;SDS011;53960;51.826;5.850;2023-09-12T05:06:28;54.35;;;29.10;;
67053;SDS011;53960;51.826;5.850;2023-09-12T05:08:53;53.33;;;28.67;;
67053;SDS011;53960;51.826;5.850;2023-09-12T05:11:19;56.97;;;30.63;;
67053;SDS011;53960;51.826;5.850;2023-09-12T05:13:44;53.83;;;28.73;;
67053;SDS011;53960;51.826;5.850;2023-09-12T05:16:09;52.00;;;28.87;;
67053;SDS011;53960;51.826;5.850;2023-09-12T05:18:35;51.60;;;29.10;;
67053;SDS011;53960;51.826;5.850;2023-09-12T05:21:00;56.93;;;31.20;;
67053;SDS011;53960;51.826;5.850;2023-09-12T05:23:25;55.55;;;29.63;;
67053;SDS011;53960;51.826;5.850;2023-09-12T05:25:51;55.07;;;28.97;;
67053;SDS011;53960;51.826;5.850;2023-09-12T05:28:16;52.17;;;29.47;;
67053;SDS011;53960;51.826;5.850;2023-09-12T05:30:42;55.97;;;29.73;;
67053;SDS011;53960;51.826;5.850;2023-09-12T05:33:08;54.50;;;28.77;;
67053;SDS011;53960;51.826;5.850;2023-09-12T05:35:33;51.30;;;28.23;;
67053;SDS011;53960;51.826;5.850;2023-09-12T05:37:59;48.40;;;27.70;;
67053;SDS011;53960;51.826;5.850;2023-09-12T05:40:24;43.77;;;26.10;;
67053;SDS011;53960;51.826;5.850;2023-09-12T05:42:49;41.70;;;24.67;;
67053;SDS011;53960;51.826;5.850;2023-09-12T05:45:15;39.80;;;24.40;;
67053;SDS011;53960;51.826;5.850;2023-09-12T05:47:40;39.57;;;22.83;;
67053;SDS011;53960;51.826;5.850;2023-09-12T05:50:05;36.83;;;22.13;;
67053;SDS011;53960;51.826;5.850;2023-09-12T05:52:32;39.58;;;22.88;;
67053;SDS011;53960;51.826;5.850;2023-09-12T05:55:00;32.63;;;21.30;;
67053;SDS011;53960;51.826;5.850;2023-09-12T05:57:25;34.00;;;22.17;;
67053;SDS011;53960;51.826;5.850;2023-09-12T05:59:51;37.17;;;22.97;;
67053;SDS011;53960;51.826;5.850;2023-09-12T06:02:16;45.23;;;24.13;;
67053;SDS011;53960;51.826;5.850;2023-09-12T06:04:42;59.07;;;23.63;;
67053;SDS011;53960;51.826;5.850;2023-09-12T06:07:08;48.03;;;24.13;;
67053;SDS011;53960;51.826;5.850;2023-09-12T06:09:33;45.60;;;25.10;;
67053;SDS011;53960;51.826;5.850;2023-09-12T06:11:59;44.33;;;24.70;;
67053;SDS011;53960;51.826;5.850;2023-09-12T06:14:24;44.97;;;25.00;;
67053;SDS011;53960;51.826;5.850;2023-09-12T06:16:49;44.00;;;25.03;;
67053;SDS011;53960;51.826;5.850;2023-09-12T06:19:15;42.13;;;24.70;;
67053;SDS011;53960;51.826;5.850;2023-09-12T06:21:40;44.00;;;25.37;;
67053;SDS011;53960;51.826;5.850;2023-09-12T06:24:12;44.88;;;26.85;;
67053;SDS011;53960;51.826;5.850;2023-09-12T06:26:41;47.47;;;27.05;;
67053;SDS011;53960;51.826;5.850;2023-09-12T06:29:07;46.83;;;27.00;;
67053;SDS011;53960;51.826;5.850;2023-09-12T06:31:32;45.72;;;27.30;;
67053;SDS011;53960;51.826;5.850;2023-09-12T06:33:58;50.57;;;28.13;;
67053;SDS011;53960;51.826;5.850;2023-09-12T06:36:27;56.43;;;30.43;;
67053;SDS011;53960;51.826;5.850;2023-09-12T06:38:54;53.22;;;29.70;;
67053;SDS011;53960;51.826;5.850;2023-09-12T06:41:20;51.15;;;29.80;;
67053;SDS011;53960;51.826;5.850;2023-09-12T06:43:45;50.13;;;29.87;;
67053;SDS011;53960;51.826;5.850;2023-09-12T06:46:11;54.95;;;30.65;;
67053;SDS011;53960;51.826;5.850;2023-09-12T06:48:36;55.73;;;30.40;;
67053;SDS011;53960;51.826;5.850;2023-09-12T06:51:04;62.30;;;32.83;;
67053;SDS011;53960;51.826;5.850;2023-09-12T06:53:30;59.58;;;30.85;;
67053;SDS011;53960;51.826;5.850;2023-09-12T06:55:56;60.80;;;31.90;;
67053;SDS011;53960;51.826;5.850;2023-09-12T06:58:22;60.75;;;31.77;;
67053;SDS011;53960;51.826;5.850;2023-09-12T07:00:48;60.30;;;31.00;;
67053;SDS011;53960;51.826;5.850;2023-09-12T07:03:13;59.78;;;31.75;;
67053;SDS011;53960;51.826;5.850;2023-09-12T07:05:39;61.50;;;31.63;;
67053;SDS011;53960;51.826;5.850;2023-09-12T07:08:06;63.95;;;33.15;;
67053;SDS011;53960;51.826;5.850;2023-09-12T07:10:31;63.07;;;33.13;;
67053;SDS011;53960;51.826;5.850;2023-09-12T07:12:57;61.10;;;31.73;;
67053;SDS011;53960;51.826;5.850;2023-09-12T07:15:22;58.50;;;32.77;;
67053;SDS011;53960;51.826;5.850;2023-09-12T07:17:47;60.00;;;31.67;;
67053;SDS011;53960;51.826;5.850;2023-09-12T07:20:13;61.30;;;31.53;;
67053;SDS011;53960;51.826;5.850;2023-09-12T07:22:38;61.03;;;30.47;;
67053;SDS011;53960;51.826;5.850;2023-09-12T07:25:05;57.08;;;30.90;;
67053;SDS011;53960;51.826;5.850;2023-09-12T07:27:31;59.08;;;30.63;;
67053;SDS011;53960;51.826;5.850;2023-09-12T07:29:57;60.17;;;31.73;;
67053;SDS011;53960;51.826;5.850;2023-09-12T07:32:22;57.53;;;29.47;;
67053;SDS011;53960;51.826;5.850;2023-09-12T07:34:49;57.78;;;30.00;;
67053;SDS011;53960;51.826;5.850;2023-09-12T07:37:14;55.77;;;30.83;;
67053;SDS011;53960;51.826;5.850;2023-09-12T07:39:40;59.13;;;31.07;;
67053;SDS011;53960;51.826;5.850;2023-09-12T07:42:05;56.93;;;30.10;;
67053;SDS011;53960;51.826;5.850;2023-09-12T07:44:31;58.45;;;30.17;;
67053;SDS011;53960;51.826;5.850;2023-09-12T07:46:56;60.47;;;30.80;;
67053;SDS011;53960;51.826;5.850;2023-09-12T07:49:21;58.23;;;30.87;;
67053;SDS011;53960;51.826;5.850;2023-09-12T07:51:47;59.83;;;31.03;;
67053;SDS011;53960;51.826;5.850;2023-09-12T07:54:12;53.70;;;29.30;;
67053;SDS011;53960;51.826;5.850;2023-09-12T07:56:38;52.43;;;29.43;;
67053;SDS011;53960;51.826;5.850;2023-09-12T07:59:03;55.70;;;30.67;;
67053;SDS011;53960;51.826;5.850;2023-09-12T08:01:29;64.50;;;32.33;;
67053;SDS011;53960;51.826;5.850;2023-09-12T08:03:54;57.53;;;30.50;;
67053;SDS011;53960;51.826;5.850;2023-09-12T08:06:19;55.80;;;30.83;;
67053;SDS011;53960;51.826;5.850;2023-09-12T08:08:45;53.93;;;29.80;;
67053;SDS011;53960;51.826;5.850;2023-09-12T08:11:10;54.53;;;28.40;;
67053;SDS011;53960;51.826;5.850;2023-09-12T08:13:35;53.07;;;28.53;;
67053;SDS011;53960;51.826;5.850;2023-09-12T08:16:01;52.13;;;28.77;;
67053;SDS011;53960;51.826;5.850;2023-09-12T08:18:27;51.97;;;28.10;;
67053;SDS011;53960;51.826;5.850;2023-09-12T08:20:54;51.50;;;28.08;;
67053;SDS011;53960;51.826;5.850;2023-09-12T08:23:20;48.57;;;26.03;;
67053;SDS011;53960;51.826;5.850;2023-09-12T08:25:45;48.87;;;26.47;;
67053;SDS011;53960;51.826;5.850;2023-09-12T08:28:10;50.27;;;27.93;;
67053;SDS011;53960;51.826;5.850;2023-09-12T08:30:36;48.30;;;25.97;;
67053;SDS011;53960;51.826;5.850;2023-09-12T08:33:03;50.07;;;26.43;;
67053;SDS011;53960;51.826;5.850;2023-09-12T08:35:29;50.45;;;28.05;;
67053;SDS011;53960;51.826;5.850;2023-09-12T08:37:54;44.55;;;25.15;;
67053;SDS011;53960;51.826;5.850;2023-09-12T08:40:20;42.83;;;24.10;;
67053;SDS011;53960;51.826;5.850;2023-09-12T08:42:45;45.33;;;23.43;;
67053;SDS011;53960;51.826;5.850;2023-09-12T08:45:17;45.83;;;24.75;;
67053;SDS011;53960;51.826;5.850;2023-09-12T08:47:45;47.42;;;26.85;;
67053;SDS011;53960;51.826;5.850;2023-09-12T08:50:14;46.85;;;26.00;;
67053;SDS011;53960;51.826;5.850;2023-09-12T08:52:41;45.78;;;25.00;;
67053;SDS011;53960;51.826;5.850;2023-09-12T08:55:08;49.07;;;25.20;;
67053;SDS011;53960;51.826;5.850;2023-09-12T08:57:35;46.47;;;23.25;;
67053;SDS011;53960;51.826;5.850;2023-09-12T09:00:03;41.28;;;21.70;;
67053;SDS011;53960;51.826;5.850;2023-09-12T09:02:34;39.47;;;21.25;;
67053;SDS011;53960;51.826;5.850;2023-09-12T09:05:06;36.08;;;20.25;;
67053;SDS011;53960;51.826;5.850;2023-09-12T09:07:35;35.47;;;19.93;;
67053;SDS011;53960;51.826;5.850;2023-09-12T09:10:03;36.55;;;20.40;;
67053;SDS011;53960;51.826;5.850;2023-09-12T09:12:30;34.80;;;19.77;;
67053;SDS011;53960;51.826;5.850;2023-09-12T09:14:56;30.85;;;17.33;;
67053;SDS011;53960;51.826;5.850;2023-09-12T09:17:21;29.97;;;17.63;;
67053;SDS011;53960;51.826;5.850;2023-09-12T09:19:46;27.97;;;16.47;;
67053;SDS011;53960;51.826;5.850;2023-09-12T09:22:12;31.60;;;19.63;;
67053;SDS011;53960;51.826;5.850;2023-09-12T09:24:38;33.40;;;20.97;;
67053;SDS011;53960;51.826;5.850;2023-09-12T09:27:03;33.67;;;20.63;;
67053;SDS011;53960;51.826;5.850;2023-09-12T09:29:29;36.20;;;21.33;;
67053;SDS011;53960;51.826;5.850;2023-09-12T09:31:57;31.80;;;19.45;;
67053;SDS011;53960;51.826;5.850;2023-09-12T09:34:24;31.77;;;19.17;;
67053;SDS011;53960;51.826;5.850;2023-09-12T09:36:53;29.35;;;18.50;;
67053;SDS011;53960;51.826;5.850;2023-09-12T09:39:20;28.98;;;17.15;;
67053;SDS011;53960;51.826;5.850;2023-09-12T09:41:55;30.48;;;16.25;;
67053;SDS011;53960;51.826;5.850;2023-09-12T09:44:22;26.75;;;17.08;;
67053;SDS011;53960;51.826;5.850;2023-09-12T09:46:52;28.93;;;17.07;;
67053;SDS011;53960;51.826;5.850;2023-09-12T09:49:25;26.00;;;17.15;;
67053;SDS011;53960;51.826;5.850;2023-09-12T09:51:50;27.80;;;16.27;;
67053;SDS011;53960;51.826;5.850;2023-09-12T09:54:15;22.85;;;14.63;;
67053;SDS011;53960;51.826;5.850;2023-09-12T09:56:52;24.30;;;14.70;;
67053;SDS011;53960;51.826;5.850;2023-09-12T09:59:23;23.10;;;13.98;;
67053;SDS011;53960;51.826;5.850;2023-09-12T10:01:50;21.47;;;13.13;;
67053;SDS011;53960;51.826;5.850;2023-09-12T10:04:19;19.80;;;11.25;;
67053;SDS011;53960;51.826;5.850;2023-09-12T10:06:45;21.80;;;12.98;;
67053;SDS011;53960;51.826;5.850;2023-09-12T10:09:14;20.70;;;12.52;;
67053;SDS011;53960;51.826;5.850;2023-09-12T10:11:42;20.57;;;12.50;;
67053;SDS011;53960;51.826;5.850;2023-09-12T10:14:08;21.88;;;13.25;;
67053;SDS011;53960;51.826;5.850;2023-09-12T10:16:39;20.85;;;12.93;;
67053;SDS011;53960;51.826;5.850;2023-09-12T10:24:34;22.20;;;13.07;;
67053;SDS011;53960;51.826;5.850;2023-09-12T10:27:00;20.90;;;11.85;;
67053;SDS011;53960;51.826;5.850;2023-09-12T10:29:27;20.45;;;11.85;;
67053;SDS011;53960;51.826;5.850;2023-09-12T10:31:53;20.85;;;12.63;;
67053;SDS011;53960;51.826;5.850;2023-09-12T10:34:18;18.50;;;10.83;;
67053;SDS011;53960;51.826;5.850;2023-09-12T10:36:45;17.05;;;9.27;;
67053;SDS011;53960;51.826;5.850;2023-09-12T10:39:12;17.13;;;9.57;;
67053;SDS011;53960;51.826;5.850;2023-09-12T10:41:39;17.43;;;9.37;;
67053;SDS011;53960;51.826;5.850;2023-09-12T10:44:06;16.42;;;9.02;;
67053;SDS011;53960;51.826;5.850;2023-09-12T10:46:35;17.42;;;8.55;;
67053;SDS011;53960;51.826;5.850;2023-09-12T10:49:03;19.45;;;10.75;;
67053;SDS011;53960;51.826;5.850;2023-09-12T10:51:31;17.42;;;10.10;;
67053;SDS011;53960;51.826;5.850;2023-09-12T10:53:57;18.07;;;9.67;;
67053;SDS011;53960;51.826;5.850;2023-09-12T10:56:22;15.00;;;8.93;;
67053;SDS011;53960;51.826;5.850;2023-09-12T11:01:32;16.52;;;9.98;;
67053;SDS011;53960;51.826;5.850;2023-09-12T11:03:59;16.60;;;9.52;;
67053;SDS011;53960;51.826;5.850;2023-09-12T11:06:44;14.53;;;8.07;;
67053;SDS011;53960;51.826;5.850;2023-09-12T11:11:49;14.23;;;7.60;;
67053;SDS011;53960;51.826;5.850;2023-09-12T11:14:22;17.90;;;8.27;;
67053;SDS011;53960;51.826;5.850;2023-09-12T11:22:29;15.13;;;8.00;;
67053;SDS011;53960;51.826;5.850;2023-09-12T11:24:57;13.55;;;7.03;;
67053;SDS011;53960;51.826;5.850;2023-09-12T11:27:30;15.47;;;7.03;;
67053;SDS011;53960;51.826;5.850;2023-09-12T11:30:03;14.25;;;6.18;;
67053;SDS011;53960;51.826;5.850;2023-09-12T11:32:31;12.68;;;6.68;;
67053;SDS011;53960;51.826;5.850;2023-09-12T11:34:57;11.85;;;6.35;;
67053;SDS011;53960;51.826;5.850;2023-09-12T11:37:25;11.50;;;6.32;;
67053;SDS011;53960;51.826;5.850;2023-09-12T11:39:51;12.63;;;6.43;;
67053;SDS011;53960;51.826;5.850;2023-09-12T11:42:17;13.35;;;6.47;;
67053;SDS011;53960;51.826;5.850;2023-09-12T11:44:43;13.15;;;6.70;;
67053;SDS011;53960;51.826;5.850;2023-09-12T11:47:11;12.23;;;6.47;;
67053;SDS011;53960;51.826;5.850;2023-09-12T11:49:38;14.43;;;6.73;;
67053;SDS011;53960;51.826;5.850;2023-09-12T11:52:09;12.60;;;6.40;;
67053;SDS011;53960;51.826;5.850;2023-09-12T11:54:38;13.07;;;6.72;;
67053;SDS011;53960;51.826;5.850;2023-09-12T11:57:06;14.10;;;6.75;;
67053;SDS011;53960;51.826;5.850;2023-09-12T11:59:33;12.80;;;6.35;;
67053;SDS011;53960;51.826;5.850;2023-09-12T12:02:05;14.17;;;6.97;;
67053;SDS011;53960;51.826;5.850;2023-09-12T12:04:32;12.57;;;6.47;;
67053;SDS011;53960;51.826;5.850;2023-09-12T12:06:57;12.57;;;6.90;;
67053;SDS011;53960;51.826;5.850;2023-09-12T12:09:23;14.68;;;8.13;;
67053;SDS011;53960;51.826;5.850;2023-09-12T12:11:49;20.42;;;11.27;;
67053;SDS011;53960;51.826;5.850;2023-09-12T12:14:15;22.17;;;13.23;;
67053;SDS011;53960;51.826;5.850;2023-09-12T12:16:42;18.92;;;11.40;;
67053;SDS011;53960;51.826;5.850;2023-09-12T12:19:09;20.55;;;12.32;;
67053;SDS011;53960;51.826;5.850;2023-09-12T12:21:40;20.67;;;12.23;;
67053;SDS011;53960;51.826;5.850;2023-09-12T12:24:10;19.45;;;12.15;;
67053;SDS011;53960;51.826;5.850;2023-09-12T12:26:40;19.75;;;11.63;;
67053;SDS011;53960;51.826;5.850;2023-09-12T12:29:07;19.75;;;10.85;;
67053;SDS011;53960;51.826;5.850;2023-09-12T12:31:34;18.48;;;10.38;;
67053;SDS011;53960;51.826;5.850;2023-09-12T12:33:59;19.40;;;11.53;;
67053;SDS011;53960;51.826;5.850;2023-09-12T12:36:24;20.83;;;11.67;;
67053;SDS011;53960;51.826;5.850;2023-09-12T12:38:50;21.20;;;11.33;;
67053;SDS011;53960;51.826;5.850;2023-09-12T12:41:17;16.63;;;10.05;;
67053;SDS011;53960;51.826;5.850;2023-09-12T12:43:49;18.67;;;10.60;;
67053;SDS011;53960;51.826;5.850;2023-09-12T12:46:20;17.15;;;9.40;;
67053;SDS011;53960;51.826;5.850;2023-09-12T12:48:46;15.00;;;9.27;;
67053;SDS011;53960;51.826;5.850;2023-09-12T12:51:16;17.48;;;9.20;;
67053;SDS011;53960;51.826;5.850;2023-09-12T12:53:48;16.27;;;8.43;;
67053;SDS011;53960;51.826;5.850;2023-09-12T12:56:16;15.80;;;8.23;;
67053;SDS011;53960;51.826;5.850;2023-09-12T12:58:47;15.90;;;9.07;;
67053;SDS011;53960;51.826;5.850;2023-09-12T13:01:13;15.77;;;8.77;;
67053;SDS011;53960;51.826;5.850;2023-09-12T13:03:38;15.67;;;7.70;;
67053;SDS011;53960;51.826;5.850;2023-09-12T13:06:05;12.93;;;6.57;;
67053;SDS011;53960;51.826;5.850;2023-09-12T13:08:31;12.63;;;6.10;;
67053;SDS011;53960;51.826;5.850;2023-09-12T13:10:59;14.82;;;6.78;;
67053;SDS011;53960;51.826;5.850;2023-09-12T13:13:25;13.53;;;6.47;;
67053;SDS011;53960;51.826;5.850;2023-09-12T13:15:50;12.63;;;7.10;;
67053;SDS011;53960;51.826;5.850;2023-09-12T13:18:15;13.37;;;7.03;;
67053;SDS011;53960;51.826;5.850;2023-09-12T13:20:41;12.18;;;6.63;;
67053;SDS011;53960;51.826;5.850;2023-09-12T13:23:06;13.57;;;6.87;;
67053;SDS011;53960;51.826;5.850;2023-09-12T13:25:31;12.17;;;6.63;;
67053;SDS011;53960;51.826;5.850;2023-09-12T13:27:57;12.80;;;6.83;;
67053;SDS011;53960;51.826;5.850;2023-09-12T13:30:23;12.57;;;5.78;;
67053;SDS011;53960;51.826;5.850;2023-09-12T13:32:48;12.43;;;5.33;;
67053;SDS011;53960;51.826;5.850;2023-09-12T13:35:13;12.50;;;5.30;;
67053;SDS011;53960;51.826;5.850;2023-09-12T13:37:39;10.80;;;5.23;;
67053;SDS011;53960;51.826;5.850;2023-09-12T13:40:04;11.17;;;5.50;;
67053;SDS011;53960;51.826;5.850;2023-09-12T13:42:31;11.88;;;5.60;;
67053;SDS011;53960;51.826;5.850;2023-09-12T13:44:57;10.90;;;5.23;;
67053;SDS011;53960;51.826;5.850;2023-09-12T13:47:22;10.55;;;5.40;;
67053;SDS011;53960;51.826;5.850;2023-09-12T13:49:48;10.97;;;5.70;;
67053;SDS011;53960;51.826;5.850;2023-09-12T13:52:14;12.02;;;5.40;;
67053;SDS011;53960;51.826;5.850;2023-09-12T13:54:42;10.90;;;4.80;;
67053;SDS011;53960;51.826;5.850;2023-09-12T13:57:07;10.93;;;5.30;;
67053;SDS011;53960;51.826;5.850;2023-09-12T13:59:33;12.07;;;5.93;;
67053;SDS011;53960;51.826;5.850;2023-09-12T14:01:58;12.63;;;6.03;;
67053;SDS011;53960;51.826;5.850;2023-09-12T14:04:23;12.40;;;5.33;;
67053;SDS011;53960;51.826;5.850;2023-09-12T14:06:49;12.10;;;6.23;;
67053;SDS011;53960;51.826;5.850;2023-09-12T14:09:14;12.23;;;6.50;;
67053;SDS011;53960;51.826;5.850;2023-09-12T14:11:41;11.50;;;5.40;;
67053;SDS011;53960;51.826;5.850;2023-09-12T14:14:06;11.25;;;5.80;;
67053;SDS011;53960;51.826;5.850;2023-09-12T14:16:31;11.03;;;5.20;;
67053;SDS011;53960;51.826;5.850;2023-09-12T14:18:57;11.37;;;6.10;;
67053;SDS011;53960;51.826;5.850;2023-09-12T14:21:22;10.33;;;5.40;;
67053;SDS011;53960;51.826;5.850;2023-09-12T14:23:47;10.73;;;5.27;;
67053;SDS011;53960;51.826;5.850;2023-09-12T14:26:13;12.55;;;5.88;;
67053;SDS011;53960;51.826;5.850;2023-09-12T14:28:39;11.23;;;5.50;;
67053;SDS011;53960;51.826;5.850;2023-09-12T14:31:04;10.53;;;4.53;;
67053;SDS011;53960;51.826;5.850;2023-09-12T14:33:38;10.27;;;5.03;;
67053;SDS011;53960;51.826;5.850;2023-09-12T14:36:03;9.97;;;5.07;;
67053;SDS011;53960;51.826;5.850;2023-09-12T14:38:29;11.30;;;5.35;;
67053;SDS011;53960;51.826;5.850;2023-09-12T14:40:54;12.23;;;5.10;;